createdAt,value
2023-05-16T00:01:20.596Z,100630.78
2023-05-16T00:03:48.710Z,100638.13
2023-05-16T00:06:16.938Z,100625.38
2023-05-16T00:08:45.115Z,100636.44
2023-05-16T00:11:12.784Z,100644.28
2023-05-16T00:13:42.494Z,100640.25
2023-05-16T00:16:14.615Z,100654.59
2023-05-16T00:18:45.614Z,100644.06
2023-05-16T00:21:13.737Z,100652.00
2023-05-16T00:23:41.728Z,100641.44
2023-05-16T00:26:09.540Z,100652.22
2023-05-16T00:28:37.281Z,100657.72
2023-05-16T00:31:05.743Z,100654.53
2023-05-16T00:33:35.332Z,100656.16
2023-05-16T00:36:03.113Z,100659.53
2023-05-16T00:38:30.810Z,100650.69
2023-05-16T00:40:58.536Z,100651.06
2023-05-16T00:43:26.257Z,100639.97
2023-05-16T00:45:54.013Z,100654.84
2023-05-16T00:48:21.807Z,100663.94
2023-05-16T00:50:52.346Z,100665.41
2023-05-16T00:53:20.472Z,100641.75
2023-05-16T00:55:48.639Z,100651.00
2023-05-16T00:58:16.541Z,100658.53
2023-05-16T01:00:45.017Z,100654.94
2023-05-16T01:03:13.816Z,100660.41
2023-05-16T01:05:42.475Z,100662.53
2023-05-16T01:08:11.580Z,100656.38
2023-05-16T01:10:45.608Z,100673.78
2023-05-16T01:13:16.834Z,100674.88
2023-05-16T01:15:49.041Z,100670.63
2023-05-16T01:18:22.699Z,100667.13
2023-05-16T01:20:56.911Z,100677.34
2023-05-16T01:23:43.590Z,100676.50
2023-05-16T01:26:20.386Z,100684.81
2023-05-16T01:28:49.309Z,100693.06
2023-05-16T01:31:17.355Z,100697.38
2023-05-16T01:33:45.492Z,100684.59
2023-05-16T01:36:20.809Z,100695.50
2023-05-16T01:38:58.472Z,100691.66
2023-05-16T01:41:33.720Z,100681.03
2023-05-16T01:44:04.278Z,100693.25
2023-05-16T01:46:35.338Z,100694.00
2023-05-16T01:49:07.806Z,100704.06
2023-05-16T01:51:37.180Z,100696.97
2023-05-16T01:54:07.687Z,100704.84
2023-05-16T01:56:38.304Z,100704.66
2023-05-16T01:59:06.604Z,100716.63
2023-05-16T02:01:34.943Z,100716.75
2023-05-16T02:04:03.402Z,100705.63
2023-05-16T02:06:31.515Z,100711.16
2023-05-16T02:08:59.205Z,100725.69
2023-05-16T02:11:27.136Z,100715.59
2023-05-16T02:13:56.216Z,100723.03
2023-05-16T02:16:24.442Z,100709.94
2023-05-16T02:18:52.170Z,100713.56
2023-05-16T02:21:19.971Z,100710.75
2023-05-16T02:23:47.658Z,100706.09
2023-05-16T02:26:15.300Z,100703.31
2023-05-16T02:28:43.296Z,100709.50
2023-05-16T02:31:12.414Z,100710.59
2023-05-16T02:33:40.092Z,100721.56
2023-05-16T02:36:08.294Z,100732.72
2023-05-16T02:38:35.979Z,100738.84
2023-05-16T02:41:03.650Z,100733.63
2023-05-16T02:43:31.365Z,100735.47
2023-05-16T02:45:59.354Z,100733.03
2023-05-16T02:48:28.785Z,100733.75
2023-05-16T02:50:56.657Z,100748.72
2023-05-16T02:53:24.343Z,100739.13
2023-05-16T02:55:52.261Z,100746.28
2023-05-16T02:58:19.934Z,100752.34
2023-05-16T03:00:47.861Z,100752.44
2023-05-16T03:03:16.404Z,100765.94
2023-05-16T03:05:46.268Z,100759.28
2023-05-16T03:08:14.000Z,100757.97
2023-05-16T03:10:41.692Z,100774.59
2023-05-16T03:13:09.347Z,100763.94
2023-05-16T03:15:37.328Z,100770.28
2023-05-16T03:18:05.135Z,100779.28
2023-05-16T03:20:33.312Z,100790.69
2023-05-16T03:23:02.500Z,100786.41
2023-05-16T03:25:30.185Z,100781.59
2023-05-16T03:27:58.057Z,100779.94
2023-05-16T03:30:26.272Z,100790.16
2023-05-16T03:32:54.085Z,100777.44
2023-05-16T03:35:21.845Z,100795.91
2023-05-16T03:37:49.562Z,100796.28
2023-05-16T03:40:18.837Z,100789.31
2023-05-16T03:42:46.514Z,100790.31
2023-05-16T03:45:14.383Z,100809.75
2023-05-16T03:47:42.251Z,100800.69
2023-05-16T03:50:11.037Z,100815.25
2023-05-16T03:52:38.888Z,100818.72
2023-05-16T03:55:08.387Z,100816.97
2023-05-16T03:57:39.210Z,100807.41
2023-05-16T04:00:09.050Z,100804.94
2023-05-16T04:02:37.185Z,100807.34
2023-05-16T04:05:05.569Z,100823.63
2023-05-16T04:07:33.214Z,100824.28
2023-05-16T04:10:00.948Z,100838.25
2023-05-16T04:15:12.088Z,100840.84
2023-05-16T04:17:40.156Z,100830.13
2023-05-16T04:20:08.655Z,100850.63
2023-05-16T04:22:36.345Z,100835.25
2023-05-16T04:25:04.531Z,100850.31
2023-05-16T04:27:32.148Z,100824.50
2023-05-16T04:30:00.445Z,100854.41
2023-05-16T04:32:30.198Z,100863.00
2023-05-16T04:34:57.843Z,100854.41
2023-05-16T04:37:25.502Z,100867.81
2023-05-16T04:39:54.539Z,100860.16
2023-05-16T04:42:22.297Z,100853.94
2023-05-16T04:44:50.249Z,100855.25
2023-05-16T04:47:17.861Z,100846.00
2023-05-16T04:49:46.922Z,100869.28
2023-05-16T04:52:14.882Z,100875.66
2023-05-16T04:54:42.526Z,100869.66
2023-05-16T04:57:10.196Z,100870.72
2023-05-16T04:59:38.582Z,100889.72
2023-05-16T05:02:07.926Z,100886.19
2023-05-16T05:04:36.094Z,100892.44
2023-05-16T05:07:05.543Z,100887.25
2023-05-16T05:09:33.193Z,100883.28
2023-05-16T05:14:36.172Z,100886.13
2023-05-16T05:17:03.853Z,100885.34
2023-05-16T05:19:31.586Z,100894.53
2023-05-16T05:21:59.953Z,100894.13
2023-05-16T05:24:29.163Z,100897.75
2023-05-16T05:26:56.988Z,100902.41
2023-05-16T05:29:24.608Z,100901.59
2023-05-16T05:31:52.260Z,100905.34
2023-05-16T05:34:20.000Z,100898.13
2023-05-16T05:36:47.671Z,100903.00
2023-05-16T05:39:15.311Z,100901.97
2023-05-16T05:41:44.453Z,100921.78
2023-05-16T05:44:12.109Z,100920.63
2023-05-16T05:46:39.825Z,100901.75
2023-05-16T05:49:07.538Z,100919.44
2023-05-16T05:51:35.644Z,100921.63
2023-05-16T05:54:03.512Z,100918.94
2023-05-16T05:56:31.178Z,100927.00
2023-05-16T05:59:00.363Z,100925.25
2023-05-16T06:01:28.008Z,100929.38
2023-05-16T06:03:55.777Z,100928.03
2023-05-16T06:06:23.744Z,100933.03
2023-05-16T06:08:51.469Z,100935.00
2023-05-16T06:11:19.779Z,100933.34
2023-05-16T06:13:47.415Z,100940.84
2023-05-16T06:16:16.471Z,100939.78
2023-05-16T06:18:44.321Z,100945.97
2023-05-16T06:21:12.032Z,100942.66
2023-05-16T06:23:40.123Z,100946.28
2023-05-16T06:26:07.791Z,100955.03
2023-05-16T06:28:35.763Z,100944.34
2023-05-16T06:31:03.436Z,100950.88
2023-05-16T06:33:32.617Z,100968.88
2023-05-16T06:36:00.305Z,100942.13
2023-05-16T06:38:28.247Z,100948.47
2023-05-16T06:40:55.928Z,100960.00
2023-05-16T06:43:23.853Z,100953.66
2023-05-16T06:45:52.054Z,100962.19
2023-05-16T06:48:20.136Z,100966.94
2023-05-16T06:50:52.099Z,100965.53
2023-05-16T06:53:19.901Z,100940.22
2023-05-16T06:55:48.328Z,100968.53
2023-05-16T06:58:16.259Z,100953.47
2023-05-16T07:00:44.226Z,100961.91
2023-05-16T07:03:12.269Z,100977.25
2023-05-16T07:05:40.006Z,100962.06
2023-05-16T07:08:09.953Z,100958.75
2023-05-16T07:10:38.028Z,100954.06
2023-05-16T07:13:06.248Z,100949.06
2023-05-16T07:15:34.241Z,100965.88
2023-05-16T07:18:02.061Z,100970.41
2023-05-16T07:20:29.895Z,100984.28
2023-05-16T07:22:59.317Z,100970.94
2023-05-16T07:25:28.806Z,100968.91
2023-05-16T07:27:56.890Z,100985.00
2023-05-16T07:30:24.767Z,100978.03
2023-05-16T07:32:52.680Z,100979.72
2023-05-16T07:35:20.517Z,100980.00
2023-05-16T07:37:48.294Z,100990.59
2023-05-16T07:40:18.108Z,100975.28
2023-05-16T07:42:47.174Z,100993.94
2023-05-16T07:45:14.909Z,100995.56
2023-05-16T07:47:42.674Z,100992.88
2023-05-16T07:50:11.785Z,100990.56
2023-05-16T07:52:39.509Z,100978.81
2023-05-16T07:55:08.444Z,100983.97
2023-05-16T07:57:36.176Z,100998.16
2023-05-16T08:00:06.206Z,101005.44
2023-05-16T08:02:34.072Z,101006.59
2023-05-16T08:05:01.824Z,100992.63
2023-05-16T08:07:29.589Z,101001.75
2023-05-16T08:09:57.245Z,100993.78
2023-05-16T08:12:25.489Z,101001.34
2023-05-16T08:14:53.349Z,100994.34
2023-05-16T08:17:22.781Z,100997.72
2023-05-16T08:19:51.085Z,100983.88
2023-05-16T08:22:18.816Z,101003.03
2023-05-16T08:24:46.491Z,101009.66
2023-05-16T08:27:14.121Z,101005.25
2023-05-16T08:29:41.902Z,101011.91
2023-05-16T08:32:10.866Z,101010.28
2023-05-16T08:34:54.482Z,100982.88
2023-05-16T08:37:22.311Z,101004.44
2023-05-16T08:39:50.129Z,100984.22
2023-05-16T08:42:17.843Z,100982.84
2023-05-16T08:44:45.588Z,100986.25
2023-05-16T08:47:15.608Z,100974.06
2023-05-16T08:49:45.231Z,101001.41
2023-05-16T08:52:15.431Z,101002.78
2023-05-16T08:54:43.334Z,101010.47
2023-05-16T08:57:11.156Z,101010.34
2023-05-16T08:59:38.954Z,101003.59
2023-05-16T09:02:06.718Z,101017.41
2023-05-16T09:04:34.791Z,100991.91
2023-05-16T09:07:02.772Z,101007.53
2023-05-16T09:09:31.815Z,100993.06
2023-05-16T09:11:59.478Z,100986.16
2023-05-16T09:14:27.169Z,100980.16
2023-05-16T09:17:05.190Z,100996.00
2023-05-16T09:19:39.205Z,100977.91
2023-05-16T09:22:08.620Z,100992.63
2023-05-16T09:24:39.526Z,100978.81
2023-05-16T09:27:34.191Z,101006.38
2023-05-16T09:30:01.898Z,101014.13
2023-05-16T09:35:12.801Z,101004.47
2023-05-16T09:37:45.849Z,101000.13
2023-05-16T09:40:16.017Z,100989.53
2023-05-16T09:42:44.370Z,100986.22
2023-05-16T09:45:14.932Z,100983.75
2023-05-16T09:47:46.435Z,101002.03
2023-05-16T09:50:17.341Z,100978.88
2023-05-16T09:52:45.597Z,100988.31
2023-05-16T09:55:13.284Z,100982.13
2023-05-16T09:57:42.415Z,100979.97
2023-05-16T10:00:13.229Z,100993.16
2023-05-16T10:02:41.075Z,100969.28
2023-05-16T10:05:09.440Z,100958.91
2023-05-16T10:07:38.194Z,100962.84
2023-05-16T10:10:08.411Z,100978.31
2023-05-16T10:12:38.061Z,100964.13
2023-05-16T10:15:08.196Z,100974.56
2023-05-16T10:17:38.049Z,100986.47
2023-05-16T10:20:09.270Z,100978.28
2023-05-16T10:26:14.480Z,100986.78
2023-05-16T10:28:42.795Z,100975.56
2023-05-16T10:31:12.307Z,100992.56
2023-05-16T10:33:40.769Z,101005.72
2023-05-16T10:36:09.154Z,100992.84
2023-05-16T10:38:37.748Z,100987.22
2023-05-16T10:41:06.129Z,100981.03
2023-05-16T10:43:46.794Z,100977.03
2023-05-16T10:46:16.054Z,100964.03
2023-05-16T10:48:43.876Z,100983.66
2023-05-16T10:51:35.643Z,100971.72
2023-05-16T10:54:07.505Z,100970.06
2023-05-16T10:56:35.598Z,100989.00
2023-05-16T10:59:04.759Z,100969.44
2023-05-16T11:01:42.750Z,100964.34
2023-05-16T11:04:11.557Z,100973.22
2023-05-16T11:06:47.838Z,100966.16
2023-05-16T11:09:26.804Z,100970.53
2023-05-16T11:12:00.344Z,100975.53
2023-05-16T11:14:32.128Z,100986.00
2023-05-16T11:17:08.642Z,100988.81
2023-05-16T11:19:41.429Z,100983.91
2023-05-16T11:22:10.711Z,100972.69
2023-05-16T11:24:39.457Z,100959.53
2023-05-16T11:27:07.529Z,100999.94
2023-05-16T11:29:36.306Z,100998.75
2023-05-16T11:32:06.300Z,100987.50
2023-05-16T11:34:39.623Z,100998.47
2023-05-16T11:37:07.595Z,101008.81
2023-05-16T11:39:35.497Z,101014.97
2023-05-16T11:42:03.494Z,101029.22
2023-05-16T11:44:32.006Z,101009.47
2023-05-16T11:47:01.343Z,101006.44
2023-05-16T11:49:31.947Z,101008.38
2023-05-16T11:52:00.507Z,100997.22
2023-05-16T11:54:28.482Z,101018.06
2023-05-16T11:56:56.330Z,101027.75
2023-05-16T11:59:24.108Z,100987.44
2023-05-16T12:01:52.029Z,101006.16
2023-05-16T12:04:20.759Z,101003.09
2023-05-16T12:07:01.189Z,100993.19
2023-05-16T12:09:28.934Z,100990.59
2023-05-16T12:11:56.776Z,100991.66
2023-05-16T12:14:26.022Z,100990.16
2023-05-16T12:16:54.246Z,100994.44
2023-05-16T12:19:22.731Z,100984.69
2023-05-16T12:21:55.536Z,100984.09
2023-05-16T12:24:23.247Z,100993.81
2023-05-16T12:27:06.847Z,100984.16
2023-05-16T12:29:52.693Z,100985.75
2023-05-16T12:32:21.212Z,100994.41
2023-05-16T12:34:51.529Z,101014.38
2023-05-16T12:37:22.264Z,101023.78
2023-05-16T12:39:49.975Z,101019.13
2023-05-16T12:42:17.740Z,101031.28
2023-05-16T12:44:46.626Z,101023.91
2023-05-16T12:47:15.228Z,101027.81
2023-05-16T12:49:46.358Z,101038.94
2023-05-16T12:52:21.087Z,101022.53
2023-05-16T12:54:50.396Z,101029.09
2023-05-16T12:57:19.976Z,101017.22
2023-05-16T12:59:47.672Z,101007.88
2023-05-16T13:02:15.536Z,101006.25
2023-05-16T13:04:43.356Z,100997.19
2023-05-16T13:07:11.963Z,101016.56
2023-05-16T13:09:41.865Z,101022.66
2023-05-16T13:12:09.842Z,100995.28
2023-05-16T13:17:23.733Z,101012.28
2023-05-16T13:19:51.554Z,100996.50
2023-05-16T13:22:19.294Z,100992.81
2023-05-16T13:24:48.408Z,101004.09
2023-05-16T13:27:17.627Z,100987.03
2023-05-16T13:29:45.644Z,101014.19
2023-05-16T13:32:13.741Z,101016.63
2023-05-16T13:37:24.518Z,101021.97
2023-05-16T13:39:54.907Z,101033.56
2023-05-16T13:42:22.667Z,101026.56
2023-05-16T13:44:50.398Z,101011.94
2023-05-16T13:47:18.360Z,101004.81
2023-05-16T13:49:46.160Z,100990.22
2023-05-16T13:52:14.324Z,101006.50
2023-05-16T13:54:42.054Z,101020.81
2023-05-16T14:02:26.023Z,101026.34
2023-05-16T14:04:53.901Z,101027.94
2023-05-16T14:07:21.710Z,101024.72
2023-05-16T14:09:49.441Z,101039.94
2023-05-16T14:12:18.610Z,101041.00
2023-05-16T14:14:47.187Z,101036.38
2023-05-16T14:17:14.862Z,101035.72
2023-05-16T14:19:42.566Z,101037.06
2023-05-16T14:22:10.329Z,101034.72
2023-05-16T14:27:21.214Z,101026.75
2023-05-16T14:29:48.983Z,101025.75
2023-05-16T14:32:16.926Z,101049.59
2023-05-16T14:34:44.767Z,101053.06
2023-05-16T14:37:13.200Z,101078.88
2023-05-16T14:39:40.891Z,101094.13
2023-05-16T14:42:08.971Z,101088.34
2023-05-16T14:44:38.178Z,101077.84
2023-05-16T14:47:06.591Z,101071.84
2023-05-16T14:49:34.301Z,101073.41
2023-05-16T14:52:01.992Z,101071.88
2023-05-16T14:54:29.724Z,101077.72
2023-05-16T14:56:57.445Z,101074.09
2023-05-16T14:59:25.107Z,101071.63
2023-05-16T15:01:54.947Z,101086.75
2023-05-16T15:04:22.714Z,101078.69
2023-05-16T15:06:50.658Z,101102.91
2023-05-16T15:09:19.169Z,101077.34
2023-05-16T15:11:46.877Z,101071.03
2023-05-16T15:14:14.726Z,101055.03
2023-05-16T15:16:42.965Z,101065.59
2023-05-16T15:19:12.226Z,101077.91
2023-05-16T15:21:39.981Z,101062.63
2023-05-16T15:24:08.351Z,101059.59
2023-05-16T15:26:36.187Z,101069.91
2023-05-16T15:29:04.244Z,101088.38
2023-05-16T15:31:32.593Z,101096.81
2023-05-16T15:34:00.274Z,101084.91
2023-05-16T15:36:29.340Z,101088.34
2023-05-16T15:38:57.102Z,101089.09
2023-05-16T15:41:43.564Z,101086.16
2023-05-16T15:44:12.507Z,101098.75
2023-05-16T15:46:40.577Z,101100.38
2023-05-16T15:49:09.401Z,101110.16
2023-05-16T15:51:38.480Z,101116.75
2023-05-16T15:54:06.241Z,101103.44
2023-05-16T15:56:33.952Z,101110.09
2023-05-16T15:59:01.768Z,101102.41
2023-05-16T16:01:29.559Z,101120.19
2023-05-16T16:03:57.580Z,101117.19
2023-05-16T16:06:25.578Z,101110.94
2023-05-16T16:08:54.680Z,101118.28
2023-05-16T16:11:23.109Z,101121.91
2023-05-16T16:13:50.817Z,101107.66
2023-05-16T16:16:18.781Z,101127.28
2023-05-16T16:18:46.653Z,101119.47
2023-05-16T16:21:14.512Z,101117.09
2023-05-16T16:23:42.813Z,101112.19
2023-05-16T16:26:11.959Z,101126.91
2023-05-16T16:28:39.955Z,101109.81
2023-05-16T16:31:07.916Z,101108.31
2023-05-16T16:33:35.646Z,101125.06
2023-05-16T16:36:03.330Z,101124.75
2023-05-16T16:42:25.239Z,101125.94
2023-05-16T16:44:53.380Z,101147.09
2023-05-16T16:47:23.051Z,101126.38
2023-05-16T16:49:51.054Z,101137.63
2023-05-16T16:52:18.766Z,101130.72
2023-05-16T16:54:46.497Z,101129.84
2023-05-16T16:57:14.181Z,101138.38
2023-05-16T16:59:46.370Z,101142.19
2023-05-16T17:02:14.378Z,101136.84
2023-05-16T17:04:42.172Z,101139.25
2023-05-16T17:07:09.908Z,101148.91
2023-05-16T17:09:39.491Z,101139.69
2023-05-16T17:12:14.850Z,101144.34
2023-05-16T17:14:43.947Z,101150.56
2023-05-16T17:17:11.616Z,101153.22
2023-05-16T17:19:39.302Z,101154.97
2023-05-16T17:22:07.697Z,101165.88
2023-05-16T17:24:35.403Z,101180.13
2023-05-16T17:27:03.147Z,101193.38
2023-05-16T17:29:31.397Z,101176.16
2023-05-16T17:32:00.599Z,101177.91
2023-05-16T17:34:28.344Z,101174.28
2023-05-16T17:36:56.136Z,101159.13
2023-05-16T17:39:24.654Z,101164.84
2023-05-16T17:41:54.176Z,101179.69
2023-05-16T17:44:21.983Z,101175.94
2023-05-16T17:46:55.894Z,101176.88
2023-05-16T17:49:25.073Z,101168.38
2023-05-16T17:51:54.017Z,101175.97
2023-05-16T17:54:22.575Z,101178.78
2023-05-16T17:56:51.368Z,101189.59
2023-05-16T17:59:19.282Z,101187.84
2023-05-16T18:01:47.486Z,101212.72
2023-05-16T18:04:16.095Z,101203.34
2023-05-16T18:06:46.096Z,101201.19
2023-05-16T18:09:15.198Z,101219.66
2023-05-16T18:11:43.123Z,101210.09
2023-05-16T18:14:12.814Z,101215.47
2023-05-16T18:16:40.618Z,101209.38
2023-05-16T18:19:09.022Z,101208.28
2023-05-16T18:21:38.268Z,101218.53
2023-05-16T18:24:09.475Z,101225.44
2023-05-16T18:27:01.590Z,101222.22
2023-05-16T18:29:29.409Z,101224.47
2023-05-16T18:31:57.841Z,101225.94
2023-05-16T18:34:27.006Z,101240.00
2023-05-16T18:36:55.192Z,101223.94
2023-05-16T18:39:24.815Z,101232.38
2023-05-16T18:41:52.498Z,101236.22
2023-05-16T18:44:20.536Z,101239.03
2023-05-16T18:46:48.678Z,101239.16
2023-05-16T18:49:17.604Z,101243.53
2023-05-16T18:51:45.740Z,101255.34
2023-05-16T18:54:13.412Z,101249.53
2023-05-16T18:56:43.048Z,101246.78
2023-05-16T18:59:10.847Z,101237.78
2023-05-16T19:01:38.585Z,101238.09
2023-05-16T19:04:06.367Z,101236.13
2023-05-16T19:06:34.067Z,101247.28
2023-05-16T19:09:01.768Z,101244.19
2023-05-16T19:11:29.453Z,101243.19
2023-05-16T19:13:58.792Z,101231.78
2023-05-16T19:16:26.586Z,101257.97
2023-05-16T19:18:58.034Z,101246.91
2023-05-16T19:21:26.706Z,101248.78
2023-05-16T19:23:54.559Z,101266.22
2023-05-16T19:26:22.820Z,101239.75
2023-05-16T19:28:50.772Z,101255.63
2023-05-16T19:31:20.118Z,101266.31
2023-05-16T19:33:48.513Z,101262.63
2023-05-16T19:36:16.429Z,101267.41
2023-05-16T19:38:44.101Z,101252.78
2023-05-16T19:41:12.118Z,101253.75
2023-05-16T19:43:39.807Z,101262.91
2023-05-16T19:46:07.610Z,101254.91
2023-05-16T19:48:36.907Z,101248.06
2023-05-16T19:51:04.845Z,101266.44
2023-05-16T19:53:32.529Z,101253.50
2023-05-16T19:56:00.216Z,101267.28
2023-05-16T19:58:27.889Z,101255.75
2023-05-16T20:00:56.619Z,101247.75
2023-05-16T20:03:25.572Z,101255.84
2023-05-16T20:05:54.766Z,101266.81
2023-05-16T20:08:22.598Z,101264.34
2023-05-16T20:10:50.289Z,101251.03
2023-05-16T20:13:20.651Z,101263.72
2023-05-16T20:15:48.651Z,101267.88
2023-05-16T20:18:16.500Z,101263.91
2023-05-16T20:20:44.245Z,101264.94
2023-05-16T20:23:13.406Z,101268.81
2023-05-16T20:25:41.027Z,101270.66
2023-05-16T20:28:09.204Z,101275.97
2023-05-16T20:30:36.942Z,101286.69
2023-05-16T20:33:04.764Z,101280.53
2023-05-16T20:35:32.493Z,101274.09
2023-05-16T20:38:00.496Z,101281.38
2023-05-16T20:40:29.654Z,101287.31
2023-05-16T20:42:57.266Z,101285.28
2023-05-16T20:45:27.231Z,101280.81
2023-05-16T20:47:55.125Z,101270.56
2023-05-16T20:50:22.798Z,101288.81
2023-05-16T20:52:50.428Z,101281.38
2023-05-16T20:55:18.159Z,101276.38
2023-05-16T20:57:47.182Z,101279.22
2023-05-16T21:00:15.802Z,101278.66
2023-05-16T21:02:43.518Z,101282.16
2023-05-16T21:05:24.188Z,101275.13
2023-05-16T21:07:59.044Z,101291.66
2023-05-16T21:10:26.689Z,101271.78
2023-05-16T21:12:56.074Z,101279.34
2023-05-16T21:15:23.800Z,101293.59
2023-05-16T21:17:51.662Z,101289.00
2023-05-16T21:20:19.533Z,101275.88
2023-05-16T21:22:47.292Z,101292.53
2023-05-16T21:25:14.924Z,101292.47
2023-05-16T21:27:42.612Z,101293.75
2023-05-16T21:30:13.000Z,101290.91
2023-05-16T21:32:40.701Z,101298.66
2023-05-16T21:35:09.239Z,101286.19
2023-05-16T21:37:36.847Z,101293.47
2023-05-16T21:40:06.377Z,101302.06
2023-05-16T21:42:34.070Z,101307.88
2023-05-16T21:45:01.762Z,101294.44
2023-05-16T21:47:30.914Z,101299.00
2023-05-16T21:49:58.539Z,101302.28
2023-05-16T21:52:27.015Z,101297.53
2023-05-16T21:54:54.623Z,101294.66
2023-05-16T21:57:22.283Z,101304.13
2023-05-16T21:59:51.715Z,101292.97
2023-05-16T22:02:22.912Z,101290.59
2023-05-16T22:04:52.934Z,101287.63
2023-05-16T22:07:20.742Z,101285.13
2023-05-16T22:09:50.793Z,101282.53
2023-05-16T22:12:18.541Z,101294.66
2023-05-16T22:14:56.793Z,101287.44
2023-05-16T22:17:24.493Z,101289.50
2023-05-16T22:19:53.590Z,101284.53
2023-05-16T22:22:21.236Z,101293.03
2023-05-16T22:24:48.896Z,101290.59
2023-05-16T22:27:16.713Z,101284.84
2023-05-16T22:29:44.371Z,101285.06
2023-05-16T22:32:12.086Z,101293.75
2023-05-16T22:34:40.114Z,101293.47
2023-05-16T22:37:09.457Z,101276.31
2023-05-16T22:39:37.414Z,101283.88
2023-05-16T22:42:05.579Z,101292.34
2023-05-16T22:44:33.405Z,101292.56
2023-05-16T22:47:01.072Z,101282.53
2023-05-16T22:49:28.755Z,101287.34
2023-05-16T22:51:56.610Z,101292.47
2023-05-16T22:54:25.641Z,101289.63
2023-05-16T22:56:53.568Z,101278.72
2023-05-16T22:59:21.450Z,101291.16
2023-05-16T23:01:49.087Z,101295.13
2023-05-16T23:04:16.847Z,101294.88
2023-05-16T23:06:44.499Z,101293.81
2023-05-16T23:09:12.279Z,101293.56
2023-05-16T23:11:41.293Z,101290.19
2023-05-16T23:14:08.967Z,101305.94
2023-05-16T23:16:36.573Z,101300.50
2023-05-16T23:19:05.529Z,101307.53
2023-05-16T23:21:35.192Z,101302.91
2023-05-16T23:24:02.868Z,101297.97
2023-05-16T23:26:31.432Z,101301.53
2023-05-16T23:29:00.423Z,101303.31
2023-05-16T23:31:28.326Z,101297.75
2023-05-16T23:33:56.097Z,101296.09
2023-05-16T23:36:23.781Z,101300.53
2023-05-16T23:38:51.463Z,101311.38
2023-05-16T23:41:19.116Z,101311.44
2023-05-16T23:43:47.559Z,101309.28
2023-05-16T23:46:16.626Z,101325.47
2023-05-16T23:48:44.327Z,101316.66
2023-05-16T23:51:11.953Z,101310.41
2023-05-16T23:53:39.817Z,101310.47
2023-05-16T23:56:07.967Z,101320.84
2023-05-16T23:58:35.615Z,101318.31
